Wetterdaten: Woche 08.08.11 - 14.08.11 (KW32)
Datum Zeit Temp. A. Feuchte A. Luftdruck Regen Wind Richtung Taupunkt Windchill Windben
08.08.2011 00:00 17,3 C 80 % 1009,5 hPa 0,0 l/m 0,0 km/h N 13,8 C 17,3 C 0,4 km/h
08.08.2011 01:00 17,1 C 80 % 1009,4 hPa 0,8 l/m 0,0 km/h N 13,6 C 17,1 C 0,0 km/h
08.08.2011 02:00 16,9 C 80 % 1009,0 hPa 0,5 l/m 0,0 km/h N 13,4 C 16,9 C 0,0 km/h
08.08.2011 03:00 16,9 C 80 % 1009,0 hPa 0,0 l/m 0,0 km/h N 13,4 C 16,9 C 0,4 km/h
08.08.2011 04:00 16,8 C 80 % 1009,0 hPa 0,3 l/m 0,0 km/h N 13,4 C 16,8 C 0,8 km/h
08.08.2011 05:00 16,7 C 80 % 1008,8 hPa 0,0 l/m 0,0 km/h N 13,2 C 16,7 C 0,0 km/h
08.08.2011 06:00 16,7 C 79 % 1009,0 hPa 0,0 l/m 0,0 km/h N 13,0 C 16,7 C 0,8 km/h
08.08.2011 07:00 16,8 C 79 % 1009,0 hPa 0,3 l/m 0,0 km/h N 13,1 C 16,8 C 0,0 km/h
08.08.2011 08:00 17,0 C 79 % 1009,1 hPa 0,0 l/m 0,0 km/h N 13,3 C 17,0 C 0,0 km/h
08.08.2011 09:00 17,3 C 78 % 1009,1 hPa 0,0 l/m 0,1 km/h N 13,4 C 17,3 C 1,2 km/h
08.08.2011 10:00 17,6 C 78 % 1008,9 hPa 0,0 l/m 0,2 km/h N 13,8 C 17,6 C 2,8 km/h
08.08.2011 11:00 17,4 C 79 % 1009,3 hPa 0,3 l/m 0,0 km/h N 13,7 C 17,4 C 0,4 km/h
08.08.2011 12:00 17,4 C 79 % 1009,6 hPa 1,0 l/m 0,1 km/h N 13,7 C 17,4 C 2,4 km/h
08.08.2011 13:00 17,4 C 79 % 1009,8 hPa 1,8 l/m 0,2 km/h N 13,7 C 17,4 C 2,0 km/h
08.08.2011 14:00 17,8 C 79 % 1009,7 hPa 0,0 l/m 0,1 km/h N 14,1 C 17,8 C 2,0 km/h
08.08.2011 15:00 18,1 C 80 % 1010,3 hPa 0,0 l/m 0,1 km/h N 14,5 C 18,1 C 2,0 km/h
08.08.2011 16:00 18,4 C 81 % 1010,5 hPa 0,0 l/m 0,6 km/h W-SW 15,1 C 18,4 C 5,6 km/h
08.08.2011 17:00 18,6 C 78 % 1010,5 hPa 0,0 l/m 0,9 km/h N 14,7 C 18,6 C 5,6 km/h
08.08.2011 18:00 18,5 C 78 % 1010,0 hPa 0,0 l/m 0,4 km/h N 14,5 C 18,5 C 6,0 km/h
08.08.2011 19:00 18,0 C 79 % 1010,7 hPa 0,0 l/m 0,1 km/h N 14,4 C 18,0 C 2,4 km/h
08.08.2011 20:00 17,4 C 77 % 1012,0 hPa 1,0 l/m 0,4 km/h N 13,2 C 17,4 C 4,8 km/h
08.08.2011 21:00 16,4 C 79 % 1012,5 hPa 0,3 l/m 1,1 km/h SW 12,7 C 16,4 C 10,0 km/h
08.08.2011 22:00 16,5 C 77 % 1012,8 hPa 0,0 l/m 2,1 km/h S-SW 12,4 C 16,5 C 14,1 km/h
08.08.2011 23:00 17,1 C 72 % 1012,9 hPa 0,0 l/m 2,2 km/h S 12,0 C 17,1 C 12,9 km/h
09.08.2011 00:00 17,1 C 71 % 1013,3 hPa 0,0 l/m 3,0 km/h NW 11,7 C 17,1 C 14,5 km/h
09.08.2011 01:00 17,5 C 67 % 1013,5 hPa 0,0 l/m 3,9 km/h W-NW 11,2 C 17,5 C 22,1 km/h
09.08.2011 02:00 17,4 C 68 % 1014,3 hPa 0,0 l/m 3,8 km/h S-SW 11,3 C 17,4 C 23,3 km/h
09.08.2011 03:00 17,3 C 66 % 1014,4 hPa 0,0 l/m 6,4 km/h NW 10,7 C 17,1 C 27,8 km/h
09.08.2011 04:00 16,9 C 65 % 1014,7 hPa 0,0 l/m 5,0 km/h NW 10,3 C 16,9 C 22,5 km/h
09.08.2011 05:00 16,1 C 67 % 1014,9 hPa 0,0 l/m 6,0 km/h W-SW 9,9 C 16,0 C 23,7 km/h
09.08.2011 06:00 15,7 C 67 % 1015,7 hPa 0,0 l/m 4,8 km/h S 9,6 C 15,7 C 20,1 km/h
09.08.2011 07:00 15,9 C 66 % 1016,3 hPa 0,0 l/m 3,4 km/h O 9,6 C 15,9 C 17,3 km/h
09.08.2011 08:00 16,6 C 65 % 1016,5 hPa 0,0 l/m 4,2 km/h NW 10,0 C 16,6 C 17,7 km/h
09.08.2011 09:00 17,5 C 63 % 1016,9 hPa 0,0 l/m 5,1 km/h S 10,5 C 17,5 C 23,3 km/h
09.08.2011 10:00 19,6 C 58 % 1016,8 hPa 0,0 l/m 6,0 km/h O-SO 11,0 C 19,6 C 22,1 km/h
09.08.2011 11:00 21,6 C 52 % 1016,9 hPa 0,0 l/m 7,0 km/h W-SW 11,3 C 21,3 C 25,7 km/h
09.08.2011 12:00 22,4 C 49 % 1016,6 hPa 0,0 l/m 4,9 km/h S-SO 11,2 C 22,4 C 20,1 km/h
09.08.2011 13:00 23,8 C 45 % 1016,3 hPa 0,0 l/m 5,2 km/h W-SW 11,0 C 23,7 C 20,1 km/h
09.08.2011 14:00 22,0 C 48 % 1016,3 hPa 0,0 l/m 4,9 km/h W-SW 10,5 C 22,0 C 22,5 km/h
09.08.2011 15:00 23,5 C 43 % 1016,0 hPa 0,0 l/m 5,5 km/h W-SW 10,2 C 23,5 C 20,5 km/h
09.08.2011 16:00 21,1 C 53 % 1016,4 hPa 0,0 l/m 6,2 km/h S-SO 11,0 C 21,0 C 22,9 km/h
09.08.2011 17:00 19,6 C 56 % 1016,5 hPa 0,0 l/m 5,2 km/h S 10,7 C 19,6 C 18,9 km/h
09.08.2011 18:00 19,8 C 54 % 1016,2 hPa 0,0 l/m 3,9 km/h O 10,1 C 19,8 C 19,7 km/h
09.08.2011 19:00 19,0 C 56 % 1016,0 hPa 0,0 l/m 5,4 km/h S-SO 10,1 C 18,9 C 24,9 km/h
09.08.2011 20:00 17,0 C 60 % 1016,2 hPa 0,0 l/m 4,6 km/h S-SW 9,1 C 17,0 C 21,7 km/h
09.08.2011 21:00 16,6 C 60 % 1017,1 hPa 0,0 l/m 4,6 km/h SW 8,7 C 16,6 C 21,7 km/h
09.08.2011 22:00 16,6 C 62 % 1017,9 hPa 0,0 l/m 4,6 km/h NW 9,2 C 16,6 C 21,3 km/h
09.08.2011 23:00 16,3 C 66 % 1018,4 hPa 0,0 l/m 4,3 km/h W-SW 9,9 C 16,3 C 21,3 km/h
10.08.2011 00:00 15,4 C 67 % 1018,5 hPa 0,0 l/m 3,6 km/h SO 9,4 C 15,4 C 18,1 km/h
10.08.2011 01:00 14,9 C 69 % 1018,6 hPa 0,0 l/m 3,1 km/h N 9,1 C 14,9 C 16,1 km/h
10.08.2011 02:00 14,5 C 71 % 1018,5 hPa 0,0 l/m 3,5 km/h N-NW 9,4 C 14,5 C 20,9 km/h
10.08.2011 03:00 14,1 C 73 % 1018,9 hPa 0,0 l/m 2,3 km/h S 9,3 C 14,1 C 14,9 km/h
10.08.2011 04:00 13,8 C 75 % 1019,5 hPa 0,0 l/m 2,2 km/h SW 9,3 C 13,8 C 15,7 km/h
10.08.2011 05:00 13,5 C 76 % 1019,9 hPa 0,0 l/m 2,3 km/h SW 9,3 C 13,5 C 11,3 km/h
10.08.2011 06:00 13,4 C 78 % 1020,6 hPa 0,0 l/m 2,8 km/h NW 9,6 C 13,4 C 10,9 km/h
10.08.2011 07:00 14,0 C 77 % 1021,3 hPa 0,0 l/m 3,8 km/h SO 10,0 C 14,0 C 17,3 km/h
10.08.2011 08:00 14,8 C 73 % 1021,7 hPa 0,0 l/m 5,6 km/h NW 10,0 C 14,8 C 21,3 km/h
10.08.2011 09:00 15,6 C 70 % 1022,0 hPa 0,0 l/m 5,2 km/h SW 10,1 C 15,6 C 22,5 km/h
10.08.2011 10:00 17,0 C 65 % 1022,1 hPa 0,0 l/m 5,9 km/h N-NW 10,3 C 16,9 C 22,5 km/h
10.08.2011 11:00 16,9 C 63 % 1022,4 hPa 0,0 l/m 5,4 km/h SW 9,7 C 16,9 C 21,7 km/h
10.08.2011 12:00 19,6 C 56 % 1022,4 hPa 0,0 l/m 6,4 km/h N-NW 10,6 C 19,5 C 19,7 km/h
10.08.2011 13:00 19,0 C 55 % 1022,6 hPa 0,0 l/m 4,9 km/h NW 9,8 C 19,0 C 22,9 km/h
10.08.2011 14:00 16,9 C 61 % 1023,0 hPa 0,0 l/m 4,9 km/h S-SW 9,3 C 16,9 C 20,5 km/h
10.08.2011 15:00 17,4 C 61 % 1022,9 hPa 0,0 l/m 2,8 km/h SW 9,7 C 17,4 C 13,7 km/h
10.08.2011 16:00 19,3 C 51 % 1022,5 hPa 0,0 l/m 3,4 km/h N-NW 8,9 C 19,3 C 13,3 km/h
10.08.2011 17:00 18,9 C 51 % 1022,4 hPa 0,0 l/m 2,4 km/h NW 8,6 C 18,9 C 13,7 km/h
10.08.2011 18:00 18,6 C 54 % 1022,0 hPa 0,0 l/m 1,3 km/h N-NW 9,0 C 18,6 C 9,3 km/h
10.08.2011 19:00 18,0 C 51 % 1022,0 hPa 0,0 l/m 1,6 km/h SW 7,8 C 18,0 C 8,8 km/h
10.08.2011 20:00 16,4 C 59 % 1022,2 hPa 0,0 l/m 0,0 km/h N 8,2 C 16,4 C 0,0 km/h
10.08.2011 21:00 14,0 C 67 % 1022,5 hPa 0,0 l/m 0,0 km/h N 7,9 C 14,0 C 0,0 km/h
10.08.2011 22:00 12,4 C 72 % 1022,8 hPa 0,0 l/m 0,0 km/h N 7,5 C 12,4 C 0,4 km/h
10.08.2011 23:00 11,3 C 75 % 1022,7 hPa 0,0 l/m 0,0 km/h N 7,0 C 11,3 C 1,2 km/h
11.08.2011 00:00 10,7 C 77 % 1022,5 hPa 0,0 l/m 0,0 km/h N 6,8 C 10,7 C 2,0 km/h
11.08.2011 01:00 10,3 C 78 % 1022,2 hPa 0,0 l/m 0,1 km/h N 6,6 C 10,3 C 2,8 km/h
11.08.2011 02:00 10,3 C 78 % 1021,9 hPa 0,0 l/m 0,5 km/h N 6,6 C 10,3 C 4,4 km/h
11.08.2011 03:00 10,0 C 79 % 1021,6 hPa 0,0 l/m 0,2 km/h N 6,5 C 10,0 C 3,6 km/h
11.08.2011 04:00 9,8 C 80 % 1021,2 hPa 0,0 l/m 0,1 km/h N 6,4 C 9,8 C 2,8 km/h
11.08.2011 05:00 9,4 C 81 % 1021,1 hPa 0,0 l/m 0,0 km/h N 6,2 C 9,4 C 1,2 km/h
11.08.2011 06:00 9,3 C 82 % 1021,0 hPa 0,0 l/m 0,0 km/h N 6,4 C 9,3 C 0,8 km/h
11.08.2011 07:00 10,1 C 82 % 1020,9 hPa 0,0 l/m 0,2 km/h N 7,2 C 10,1 C 3,2 km/h
11.08.2011 08:00 11,9 C 82 % 1020,7 hPa 0,0 l/m 0,0 km/h N 8,9 C 11,9 C 1,6 km/h
11.08.2011 09:00 14,6 C 71 % 1020,2 hPa 0,0 l/m 0,9 km/h S 9,3 C 14,6 C 7,3 km/h
11.08.2011 10:00 18,9 C 57 % 1019,6 hPa 0,0 l/m 1,1 km/h S-SW 10,0 C 18,9 C 8,1 km/h
11.08.2011 11:00 22,5 C 49 % 1019,0 hPa 0,0 l/m 1,1 km/h NW 11,2 C 22,5 C 5,6 km/h
11.08.2011 12:00 25,3 C 39 % 1018,2 hPa 0,0 l/m 2,0 km/h SW 10,2 C 25,3 C 13,3 km/h
11.08.2011 13:00 27,0 C 35 % 1017,6 hPa 0,0 l/m 3,5 km/h S 10,1 C 27,0 C 13,3 km/h
11.08.2011 14:00 28,7 C 29 % 1016,9 hPa 0,0 l/m 3,2 km/h S-SO 8,6 C 28,7 C 12,9 km/h
11.08.2011 15:00 29,4 C 28 % 1016,2 hPa 0,0 l/m 2,3 km/h S-SW 9,0 C 29,4 C 11,6 km/h
11.08.2011 16:00 29,6 C 32 % 1015,6 hPa 0,0 l/m 1,7 km/h S-SW 11,2 C 29,6 C 10,1 km/h
11.08.2011 17:00 29,0 C 34 % 1015,3 hPa 0,0 l/m 2,3 km/h S 11,6 C 29,0 C 9,3 km/h
11.08.2011 18:00 27,0 C 39 % 1015,1 hPa 0,0 l/m 2,1 km/h S 11,8 C 27,0 C 9,7 km/h
11.08.2011 19:00 25,8 C 44 % 1014,9 hPa 0,0 l/m 0,6 km/h N 12,4 C 25,8 C 4,8 km/h
11.08.2011 20:00 23,8 C 50 % 1014,8 hPa 0,0 l/m 0,0 km/h N 12,5 C 23,8 C 0,0 km/h
11.08.2011 21:00 21,1 C 60 % 1015,0 hPa 0,0 l/m 0,0 km/h N 12,9 C 21,1 C 0,0 km/h
11.08.2011 22:00 19,0 C 67 % 1014,8 hPa 0,0 l/m 0,0 km/h N 12,7 C 19,0 C 1,6 km/h
11.08.2011 23:00 17,6 C 72 % 1014,6 hPa 0,0 l/m 0,0 km/h N 12,4 C 17,6 C 0,8 km/h
12.08.2011 00:00 17,0 C 74 % 1014,5 hPa 0,0 l/m 0,1 km/h N 12,3 C 17,0 C 2,4 km/h
12.08.2011 01:00 16,8 C 74 % 1014,1 hPa 0,0 l/m 0,1 km/h N 12,1 C 16,8 C 2,8 km/h
12.08.2011 02:00 16,9 C 71 % 1013,6 hPa 0,0 l/m 0,2 km/h N 11,6 C 16,9 C 4,4 km/h
12.08.2011 03:00 16,8 C 71 % 1013,5 hPa 0,0 l/m 0,1 km/h N 11,5 C 16,8 C 2,4 km/h
12.08.2011 04:00 15,5 C 75 % 1013,3 hPa 0,0 l/m 0,0 km/h N 11,0 C 15,5 C 0,0 km/h
12.08.2011 05:00 14,6 C 78 % 1013,4 hPa 0,0 l/m 0,0 km/h N 10,7 C 14,6 C 0,4 km/h
12.08.2011 06:00 14,0 C 80 % 1013,6 hPa 0,0 l/m 0,1 km/h N 10,6 C 14,0 C 1,6 km/h
12.08.2011 07:00 14,2 C 81 % 1013,7 hPa 0,0 l/m 0,0 km/h N 10,9 C 14,2 C 0,4 km/h
12.08.2011 08:00 15,2 C 80 % 1013,8 hPa 0,0 l/m 0,0 km/h N 11,8 C 15,2 C 0,4 km/h
12.08.2011 09:00 16,7 C 79 % 1013,8 hPa 0,0 l/m 0,1 km/h N 13,1 C 16,7 C 2,4 km/h
12.08.2011 10:00 19,6 C 72 % 1013,5 hPa 0,0 l/m 0,0 km/h N 14,4 C 19,6 C 1,2 km/h
12.08.2011 11:00 22,8 C 62 % 1013,3 hPa 0,0 l/m 0,0 km/h N 15,1 C 22,8 C 1,6 km/h
12.08.2011 12:00 27,1 C 48 % 1012,7 hPa 0,0 l/m 0,1 km/h N 15,0 C 27,1 C 2,4 km/h
12.08.2011 13:00 29,3 C 41 % 1012,3 hPa 0,0 l/m 0,4 km/h N 14,7 C 29,3 C 5,2 km/h
12.08.2011 14:00 31,1 C 39 % 1011,7 hPa 0,0 l/m 0,5 km/h N 15,4 C 31,1 C 4,0 km/h
12.08.2011 15:00 31,9 C 35 % 1011,3 hPa 0,0 l/m 0,3 km/h N 14,6 C 31,9 C 4,0 km/h
12.08.2011 16:00 30,1 C 40 % 1011,0 hPa 0,0 l/m 0,7 km/h S-SO 14,8 C 30,1 C 6,0 km/h
12.08.2011 17:00 29,6 C 39 % 1010,7 hPa 0,0 l/m 0,9 km/h S-SW 14,3 C 29,6 C 6,0 km/h
12.08.2011 18:00 29,1 C 41 % 1010,6 hPa 0,0 l/m 2,0 km/h S-SW 14,5 C 29,1 C 8,0 km/h
12.08.2011 19:00 26,1 C 54 % 1010,6 hPa 0,0 l/m 1,2 km/h S-SO 15,9 C 26,1 C 7,6 km/h
12.08.2011 20:00 24,5 C 57 % 1011,0 hPa 0,0 l/m 1,0 km/h S 15,4 C 24,5 C 8,4 km/h
12.08.2011 21:00 20,8 C 68 % 1012,2 hPa 0,0 l/m 6,5 km/h S-SW 14,6 C 20,4 C 21,7 km/h
12.08.2011 22:00 19,1 C 70 % 1012,0 hPa 0,0 l/m 0,4 km/h N 13,5 C 19,1 C 3,6 km/h
12.08.2011 23:00 18,3 C 73 % 1011,5 hPa 0,0 l/m 0,2 km/h N 13,3 C 18,3 C 2,4 km/h
13.08.2011 00:00 18,5 C 71 % 1011,1 hPa 0,0 l/m 0,2 km/h N 13,1 C 18,5 C 3,6 km/h
13.08.2011 01:00 18,2 C 72 % 1010,8 hPa 0,0 l/m 0,1 km/h N 12,9 C 18,2 C 2,0 km/h
13.08.2011 02:00 17,0 C 76 % 1010,6 hPa 0,0 l/m 0,0 km/h N 12,7 C 17,0 C 0,8 km/h
13.08.2011 03:00 16,0 C 78 % 1010,6 hPa 0,0 l/m 0,0 km/h N 12,2 C 16,0 C 1,6 km/h
13.08.2011 04:00 15,4 C 81 % 1010,6 hPa 0,0 l/m 0,0 km/h N 12,1 C 15,4 C 0,4 km/h
13.08.2011 05:00 15,3 C 82 % 1010,5 hPa 0,0 l/m 0,0 km/h N 12,1 C 15,3 C 0,4 km/h
13.08.2011 06:00 15,6 C 81 % 1010,5 hPa 0,0 l/m 0,0 km/h N 12,3 C 15,6 C 0,0 km/h
13.08.2011 07:00 16,0 C 81 % 1011,1 hPa 0,0 l/m 0,0 km/h N 12,8 C 16,0 C 0,4 km/h
13.08.2011 08:00 17,8 C 79 % 1011,3 hPa 0,0 l/m 1,3 km/h SO 14,0 C 17,8 C 9,6 km/h
13.08.2011 09:00 18,8 C 78 % 1011,6 hPa 0,3 l/m 0,4 km/h N 14,9 C 18,8 C 4,8 km/h
13.08.2011 10:00 18,5 C 81 % 1011,9 hPa 0,8 l/m 0,1 km/h N 15,2 C 18,5 C 2,4 km/h
13.08.2011 11:00 18,8 C 81 % 1011,9 hPa 0,0 l/m 0,4 km/h N 15,4 C 18,8 C 4,4 km/h
13.08.2011 12:00 20,0 C 80 % 1011,8 hPa 0,0 l/m 0,7 km/h NO 16,4 C 20,0 C 5,6 km/h
13.08.2011 13:00 22,3 C 70 % 1011,6 hPa 0,0 l/m 2,4 km/h SW 16,6 C 22,3 C 12,5 km/h
13.08.2011 14:00 22,6 C 65 % 1011,4 hPa 0,0 l/m 4,1 km/h W-SW 15,7 C 22,6 C 19,7 km/h
13.08.2011 15:00 23,3 C 62 % 1010,8 hPa 0,0 l/m 0,8 km/h N 15,6 C 23,3 C 7,6 km/h
13.08.2011 16:00 24,0 C 62 % 1010,4 hPa 0,0 l/m 0,3 km/h N 16,3 C 24,0 C 3,2 km/h
13.08.2011 17:00 25,8 C 55 % 1010,2 hPa 0,0 l/m 2,1 km/h S 16,1 C 25,8 C 9,6 km/h
13.08.2011 18:00 25,7 C 55 % 1009,9 hPa 0,0 l/m 1,0 km/h W-SW 15,8 C 25,7 C 7,3 km/h
13.08.2011 19:00 25,4 C 55 % 1009,9 hPa 0,0 l/m 0,5 km/h N 15,7 C 25,4 C 6,4 km/h
13.08.2011 20:00 23,3 C 61 % 1010,3 hPa 0,0 l/m 0,2 km/h N 15,3 C 23,3 C 3,2 km/h
13.08.2011 21:00 21,5 C 68 % 1010,6 hPa 0,0 l/m 1,6 km/h S-SW 15,2 C 21,5 C 7,6 km/h
13.08.2011 22:00 20,0 C 73 % 1010,8 hPa 0,0 l/m 0,2 km/h N 15,1 C 20,0 C 4,0 km/h
13.08.2011 23:00 19,2 C 76 % 1011,1 hPa 0,0 l/m 0,1 km/h N 14,8 C 19,2 C 2,4 km/h
14.08.2011 00:00 18,5 C 77 % 1011,2 hPa 0,0 l/m 0,0 km/h N 14,4 C 18,5 C 0,0 km/h
14.08.2011 01:00 17,3 C 79 % 1011,1 hPa 0,0 l/m 0,0 km/h N 13,6 C 17,3 C 0,8 km/h
14.08.2011 02:00 16,6 C 81 % 1011,1 hPa 0,0 l/m 0,1 km/h N 13,3 C 16,6 C 2,0 km/h
14.08.2011 03:00 15,9 C 82 % 1010,8 hPa 0,0 l/m 0,0 km/h N 12,8 C 15,9 C 0,4 km/h
14.08.2011 04:00 15,8 C 82 % 1010,7 hPa 0,0 l/m 0,0 km/h N 12,6 C 15,8 C 0,0 km/h
14.08.2011 05:00 16,1 C 81 % 1010,6 hPa 0,0 l/m 0,0 km/h N 12,9 C 16,1 C 1,6 km/h
14.08.2011 06:00 16,2 C 81 % 1010,7 hPa 0,0 l/m 0,0 km/h N 13,0 C 16,2 C 0,8 km/h
14.08.2011 07:00 16,3 C 81 % 1010,8 hPa 0,0 l/m 0,0 km/h N 13,0 C 16,3 C 0,4 km/h
14.08.2011 08:00 17,6 C 81 % 1010,8 hPa 0,0 l/m 0,0 km/h N 14,3 C 17,6 C 1,2 km/h
14.08.2011 09:00 19,4 C 81 % 1010,7 hPa 0,0 l/m 0,0 km/h N 16,0 C 19,4 C 1,6 km/h
14.08.2011 10:00 22,6 C 70 % 1010,5 hPa 0,0 l/m 0,3 km/h N 16,8 C 22,6 C 5,2 km/h
14.08.2011 11:00 27,0 C 57 % 1010,1 hPa 0,0 l/m 0,7 km/h N 17,7 C 27,0 C 6,4 km/h
14.08.2011 12:00 29,3 C 51 % 1009,8 hPa 0,0 l/m 0,6 km/h S 18,1 C 29,3 C 6,0 km/h
14.08.2011 13:00 30,4 C 49 % 1009,6 hPa 0,0 l/m 0,5 km/h N 18,5 C 30,4 C 5,6 km/h
14.08.2011 14:00 31,4 C 48 % 1009,3 hPa 0,0 l/m 0,6 km/h SO 18,9 C 31,4 C 4,4 km/h
14.08.2011 15:00 31,8 C 45 % 1008,8 hPa 0,0 l/m 0,7 km/h O 18,4 C 31,8 C 5,6 km/h
14.08.2011 16:00 31,4 C 47 % 1008,5 hPa 0,0 l/m 0,7 km/h N 18,7 C 31,4 C 6,4 km/h
14.08.2011 17:00 31,0 C 47 % 1008,2 hPa 0,0 l/m 0,3 km/h N 18,4 C 31,0 C 3,2 km/h
14.08.2011 18:00 29,4 C 51 % 1007,7 hPa 0,0 l/m 0,2 km/h N 18,2 C 29,4 C 2,4 km/h
14.08.2011 19:00 28,0 C 56 % 1007,4 hPa 0,0 l/m 0,0 km/h N 18,5 C 28,0 C 1,2 km/h
14.08.2011 20:00 26,5 C 61 % 1007,5 hPa 0,0 l/m 0,0 km/h N 18,3 C 26,5 C 1,2 km/h
14.08.2011 21:00 24,5 C 68 % 1008,0 hPa 0,0 l/m 0,0 km/h N 18,1 C 24,5 C 0,8 km/h
14.08.2011 22:00 22,4 C 74 % 1008,0 hPa 0,0 l/m 0,0 km/h N 17,4 C 22,4 C 0,8 km/h
14.08.2011 23:00 21,0 C 77 % 1007,8 hPa 0,0 l/m 0,0 km/h N 16,8 C 21,0 C 1,2 km/h
Min-Datum _ 11.08.11 11.08.11 14.08.11 - 08.08.11 - 11.08.11 11.08.11 08.08.11
_ Min-Zeit 05:45 15:30 19:15 - 00:00 - 05:45 05:45 00:00
Minimum _ 9,2 C 24 % 1007,4 hPa - 0,0 km/h - 6,1 C 9,2 C 0,0 km/h
Max-Datum _ 12.08.11 08.08.11 10.08.11 08.08.11 12.08.11 - 14.08.11 12.08.11 09.08.11
_ Max-Zeit 15:00 16:30 14:15 13:15 21:30 - 14:45 15:00 19:00
Maximum _ 32,4 C 82 % 1023,0 hPa 1,8 l/m 8,5 km/h
S-SW
- 19,2 C 32,2 C 32,2 km/h
W-SW
Durchschnitt _ 19,3 C 66 % 1014,1 hPa #7,3 l/m 1,5 km/h SW 12,4 C 19,3 C 8,0 km/h